sensor_id;sensor_type;location;lat;lon;timestamp;temperature;humidity
59025;DHT22;44806;48.008;13.666;2023-09-19T00:01:35;17.60;99.90
59025;DHT22;44806;48.008;13.666;2023-09-19T00:04:03;17.60;99.90
59025;DHT22;44806;48.008;13.666;2023-09-19T00:06:35;17.50;99.90
59025;DHT22;44806;48.008;13.666;2023-09-19T00:09:02;17.40;99.90
59025;DHT22;44806;48.008;13.666;2023-09-19T00:11:29;17.40;99.90
59025;DHT22;44806;48.008;13.666;2023-09-19T00:13:57;17.20;99.90
59025;DHT22;44806;48.008;13.666;2023-09-19T00:16:25;17.30;99.90
59025;DHT22;44806;48.008;13.666;2023-09-19T00:18:52;17.20;99.90
59025;DHT22;44806;48.008;13.666;2023-09-19T00:21:21;17.10;99.90
59025;DHT22;44806;48.008;13.666;2023-09-19T00:23:47;17.10;99.90
59025;DHT22;44806;48.008;13.666;2023-09-19T00:26:14;17.20;99.90
59025;DHT22;44806;48.008;13.666;2023-09-19T00:28:43;17.20;99.90
59025;DHT22;44806;48.008;13.666;2023-09-19T00:31:10;17.20;99.90
59025;DHT22;44806;48.008;13.666;2023-09-19T00:33:37;17.20;99.90
59025;DHT22;44806;48.008;13.666;2023-09-19T00:36:04;17.30;99.90
59025;DHT22;44806;48.008;13.666;2023-09-19T00:38:32;17.20;99.90
59025;DHT22;44806;48.008;13.666;2023-09-19T00:40:59;17.20;99.90
59025;DHT22;44806;48.008;13.666;2023-09-19T00:43:26;17.30;99.90
59025;DHT22;44806;48.008;13.666;2023-09-19T00:45:57;17.40;99.90
59025;DHT22;44806;48.008;13.666;2023-09-19T00:48:26;17.40;99.90
59025;DHT22;44806;48.008;13.666;2023-09-19T00:50:54;17.50;99.90
59025;DHT22;44806;48.008;13.666;2023-09-19T00:53:24;17.60;99.90
59025;DHT22;44806;48.008;13.666;2023-09-19T00:55:54;17.70;99.90
59025;DHT22;44806;48.008;13.666;2023-09-19T00:58:21;17.70;99.90
59025;DHT22;44806;48.008;13.666;2023-09-19T01:00:49;17.80;99.90
59025;DHT22;44806;48.008;13.666;2023-09-19T01:03:17;17.70;99.90
59025;DHT22;44806;48.008;13.666;2023-09-19T01:05:44;17.60;99.90
59025;DHT22;44806;48.008;13.666;2023-09-19T01:08:11;17.70;99.90
59025;DHT22;44806;48.008;13.666;2023-09-19T01:10:43;17.60;99.90
59025;DHT22;44806;48.008;13.666;2023-09-19T01:13:18;17.60;99.90
59025;DHT22;44806;48.008;13.666;2023-09-19T01:15:49;17.60;99.90
59025;DHT22;44806;48.008;13.666;2023-09-19T01:18:27;17.60;99.90
59025;DHT22;44806;48.008;13.666;2023-09-19T01:21:01;17.60;99.90
59025;DHT22;44806;48.008;13.666;2023-09-19T01:23:45;17.70;99.90
59025;DHT22;44806;48.008;13.666;2023-09-19T01:26:30;17.70;99.90
59025;DHT22;44806;48.008;13.666;2023-09-19T01:29:17;17.80;99.90
59025;DHT22;44806;48.008;13.666;2023-09-19T01:31:58;17.80;99.90
59025;DHT22;44806;48.008;13.666;2023-09-19T01:34:27;17.80;99.90
59025;DHT22;44806;48.008;13.666;2023-09-19T01:36:53;17.80;99.90
59025;DHT22;44806;48.008;13.666;2023-09-19T01:39:20;17.80;99.90
59025;DHT22;44806;48.008;13.666;2023-09-19T01:41:55;17.80;99.90
59025;DHT22;44806;48.008;13.666;2023-09-19T01:44:29;17.70;99.90
59025;DHT22;44806;48.008;13.666;2023-09-19T01:47:02;17.70;99.90
59025;DHT22;44806;48.008;13.666;2023-09-19T01:49:36;17.70;99.90
59025;DHT22;44806;48.008;13.666;2023-09-19T01:52:09;17.70;99.90
59025;DHT22;44806;48.008;13.666;2023-09-19T01:54:44;17.60;99.90
59025;DHT22;44806;48.008;13.666;2023-09-19T01:57:17;17.50;99.90
59025;DHT22;44806;48.008;13.666;2023-09-19T01:59:52;17.50;99.90
59025;DHT22;44806;48.008;13.666;2023-09-19T02:02:23;17.40;99.90
59025;DHT22;44806;48.008;13.666;2023-09-19T02:04:51;17.30;99.90
59025;DHT22;44806;48.008;13.666;2023-09-19T02:07:18;17.30;99.90
59025;DHT22;44806;48.008;13.666;2023-09-19T02:09:45;17.40;99.90
59025;DHT22;44806;48.008;13.666;2023-09-19T02:12:13;17.30;99.90
59025;DHT22;44806;48.008;13.666;2023-09-19T02:14:40;17.20;99.90
59025;DHT22;44806;48.008;13.666;2023-09-19T02:17:07;17.20;99.90
59025;DHT22;44806;48.008;13.666;2023-09-19T02:19:38;17.00;99.90
59025;DHT22;44806;48.008;13.666;2023-09-19T02:22:06;16.80;99.90
59025;DHT22;44806;48.008;13.666;2023-09-19T02:24:36;16.90;99.90
59025;DHT22;44806;48.008;13.666;2023-09-19T02:27:04;16.80;99.90
59025;DHT22;44806;48.008;13.666;2023-09-19T02:29:31;16.80;99.90
59025;DHT22;44806;48.008;13.666;2023-09-19T02:34:42;16.60;99.90
59025;DHT22;44806;48.008;13.666;2023-09-19T02:37:11;16.60;99.90
59025;DHT22;44806;48.008;13.666;2023-09-19T02:39:39;16.60;99.90
59025;DHT22;44806;48.008;13.666;2023-09-19T02:42:06;16.50;99.90
59025;DHT22;44806;48.008;13.666;2023-09-19T02:44:33;16.40;99.90
59025;DHT22;44806;48.008;13.666;2023-09-19T02:47:01;16.40;99.90
59025;DHT22;44806;48.008;13.666;2023-09-19T02:49:28;16.40;99.90
59025;DHT22;44806;48.008;13.666;2023-09-19T02:51:56;16.30;99.90
59025;DHT22;44806;48.008;13.666;2023-09-19T02:54:25;16.40;99.90
59025;DHT22;44806;48.008;13.666;2023-09-19T02:56:52;16.40;99.90
59025;DHT22;44806;48.008;13.666;2023-09-19T02:59:19;16.30;99.90
59025;DHT22;44806;48.008;13.666;2023-09-19T03:01:46;16.40;99.90
59025;DHT22;44806;48.008;13.666;2023-09-19T03:04:14;16.40;99.90
59025;DHT22;44806;48.008;13.666;2023-09-19T03:06:45;16.30;99.90
59025;DHT22;44806;48.008;13.666;2023-09-19T03:09:17;16.30;99.90
59025;DHT22;44806;48.008;13.666;2023-09-19T03:11:45;16.30;99.90
59025;DHT22;44806;48.008;13.666;2023-09-19T03:14:13;16.30;99.90
59025;DHT22;44806;48.008;13.666;2023-09-19T03:16:41;16.30;99.90
59025;DHT22;44806;48.008;13.666;2023-09-19T03:19:10;16.30;99.90
59025;DHT22;44806;48.008;13.666;2023-09-19T03:21:37;16.30;99.90
59025;DHT22;44806;48.008;13.666;2023-09-19T03:24:05;16.30;99.90
59025;DHT22;44806;48.008;13.666;2023-09-19T03:26:33;16.30;99.90
59025;DHT22;44806;48.008;13.666;2023-09-19T03:29:03;16.30;99.90
59025;DHT22;44806;48.008;13.666;2023-09-19T03:31:33;16.30;99.90
59025;DHT22;44806;48.008;13.666;2023-09-19T03:34:02;16.30;99.90
59025;DHT22;44806;48.008;13.666;2023-09-19T03:36:30;16.30;99.90
59025;DHT22;44806;48.008;13.666;2023-09-19T03:38:57;16.40;99.90
59025;DHT22;44806;48.008;13.666;2023-09-19T03:41:24;16.30;99.90
59025;DHT22;44806;48.008;13.666;2023-09-19T03:43:52;16.20;99.90
59025;DHT22;44806;48.008;13.666;2023-09-19T03:46:19;16.20;99.90
59025;DHT22;44806;48.008;13.666;2023-09-19T03:48:46;16.20;99.90
59025;DHT22;44806;48.008;13.666;2023-09-19T03:51:13;16.30;99.90
59025;DHT22;44806;48.008;13.666;2023-09-19T03:53:40;16.30;99.90
59025;DHT22;44806;48.008;13.666;2023-09-19T03:56:07;16.30;99.90
59025;DHT22;44806;48.008;13.666;2023-09-19T03:58:33;16.30;99.90
59025;DHT22;44806;48.008;13.666;2023-09-19T04:01:06;16.20;99.90
59025;DHT22;44806;48.008;13.666;2023-09-19T04:03:33;16.30;99.90
59025;DHT22;44806;48.008;13.666;2023-09-19T04:06:11;16.20;99.90
59025;DHT22;44806;48.008;13.666;2023-09-19T04:08:38;16.20;99.90
59025;DHT22;44806;48.008;13.666;2023-09-19T04:11:05;16.20;99.90
59025;DHT22;44806;48.008;13.666;2023-09-19T04:13:32;16.20;99.90
59025;DHT22;44806;48.008;13.666;2023-09-19T04:15:59;16.20;99.90
59025;DHT22;44806;48.008;13.666;2023-09-19T04:18:27;16.30;99.90
59025;DHT22;44806;48.008;13.666;2023-09-19T04:20:56;16.20;99.90
59025;DHT22;44806;48.008;13.666;2023-09-19T04:23:23;16.20;99.90
59025;DHT22;44806;48.008;13.666;2023-09-19T04:25:50;16.20;99.90
59025;DHT22;44806;48.008;13.666;2023-09-19T04:28:17;16.10;99.90
59025;DHT22;44806;48.008;13.666;2023-09-19T04:30:44;16.20;99.90
59025;DHT22;44806;48.008;13.666;2023-09-19T04:33:11;16.20;99.90
59025;DHT22;44806;48.008;13.666;2023-09-19T04:35:41;16.20;99.90
59025;DHT22;44806;48.008;13.666;2023-09-19T04:38:08;16.30;99.90
59025;DHT22;44806;48.008;13.666;2023-09-19T04:40:35;16.20;99.90
59025;DHT22;44806;48.008;13.666;2023-09-19T04:43:05;16.20;99.90
59025;DHT22;44806;48.008;13.666;2023-09-19T04:45:33;16.30;99.90
59025;DHT22;44806;48.008;13.666;2023-09-19T04:48:00;16.30;99.90
59025;DHT22;44806;48.008;13.666;2023-09-19T04:50:28;16.30;99.90
59025;DHT22;44806;48.008;13.666;2023-09-19T04:52:56;16.40;99.90
59025;DHT22;44806;48.008;13.666;2023-09-19T04:55:23;16.40;99.90
59025;DHT22;44806;48.008;13.666;2023-09-19T04:57:51;16.40;99.90
59025;DHT22;44806;48.008;13.666;2023-09-19T05:00:19;16.50;99.90
59025;DHT22;44806;48.008;13.666;2023-09-19T05:02:49;16.50;99.90
59025;DHT22;44806;48.008;13.666;2023-09-19T05:05:17;16.50;99.90
59025;DHT22;44806;48.008;13.666;2023-09-19T05:07:45;16.50;99.90
59025;DHT22;44806;48.008;13.666;2023-09-19T05:10:14;16.50;99.90
59025;DHT22;44806;48.008;13.666;2023-09-19T05:12:41;16.50;99.90
59025;DHT22;44806;48.008;13.666;2023-09-19T05:15:10;16.50;99.90
59025;DHT22;44806;48.008;13.666;2023-09-19T05:17:38;16.50;99.90
59025;DHT22;44806;48.008;13.666;2023-09-19T05:20:06;16.60;99.90
59025;DHT22;44806;48.008;13.666;2023-09-19T05:22:41;16.70;99.90
59025;DHT22;44806;48.008;13.666;2023-09-19T05:25:08;16.70;99.90
59025;DHT22;44806;48.008;13.666;2023-09-19T05:27:37;16.70;99.90
59025;DHT22;44806;48.008;13.666;2023-09-19T05:30:04;16.70;99.90
59025;DHT22;44806;48.008;13.666;2023-09-19T05:32:33;16.70;99.90
59025;DHT22;44806;48.008;13.666;2023-09-19T05:34:59;16.70;99.90
59025;DHT22;44806;48.008;13.666;2023-09-19T05:37:26;16.60;99.90
59025;DHT22;44806;48.008;13.666;2023-09-19T05:39:54;16.60;99.90
59025;DHT22;44806;48.008;13.666;2023-09-19T05:42:21;16.60;99.90
59025;DHT22;44806;48.008;13.666;2023-09-19T05:44:50;16.70;99.90
59025;DHT22;44806;48.008;13.666;2023-09-19T05:47:16;16.80;99.90
59025;DHT22;44806;48.008;13.666;2023-09-19T05:49:43;16.80;99.90
59025;DHT22;44806;48.008;13.666;2023-09-19T05:52:10;16.90;99.90
59025;DHT22;44806;48.008;13.666;2023-09-19T05:54:37;16.90;99.90
59025;DHT22;44806;48.008;13.666;2023-09-19T05:57:04;16.90;99.90
59025;DHT22;44806;48.008;13.666;2023-09-19T05:59:31;17.00;99.90
59025;DHT22;44806;48.008;13.666;2023-09-19T06:02:00;17.10;99.90
59025;DHT22;44806;48.008;13.666;2023-09-19T06:04:27;17.10;99.90
59025;DHT22;44806;48.008;13.666;2023-09-19T06:06:56;17.10;99.90
59025;DHT22;44806;48.008;13.666;2023-09-19T06:09:23;17.20;99.90
59025;DHT22;44806;48.008;13.666;2023-09-19T06:11:53;17.20;99.90
59025;DHT22;44806;48.008;13.666;2023-09-19T06:14:21;17.30;99.90
59025;DHT22;44806;48.008;13.666;2023-09-19T06:16:50;17.20;99.90
59025;DHT22;44806;48.008;13.666;2023-09-19T06:19:21;17.20;99.90
59025;DHT22;44806;48.008;13.666;2023-09-19T06:21:52;17.20;99.90
59025;DHT22;44806;48.008;13.666;2023-09-19T06:24:20;17.30;99.90
59025;DHT22;44806;48.008;13.666;2023-09-19T06:26:47;17.30;99.90
59025;DHT22;44806;48.008;13.666;2023-09-19T06:29:14;17.20;99.90
59025;DHT22;44806;48.008;13.666;2023-09-19T06:31:41;17.20;99.90
59025;DHT22;44806;48.008;13.666;2023-09-19T06:34:10;17.30;99.90
59025;DHT22;44806;48.008;13.666;2023-09-19T06:36:38;17.30;99.90
59025;DHT22;44806;48.008;13.666;2023-09-19T06:39:06;17.40;99.90
59025;DHT22;44806;48.008;13.666;2023-09-19T06:41:36;17.50;99.90
59025;DHT22;44806;48.008;13.666;2023-09-19T06:44:04;17.60;99.90
59025;DHT22;44806;48.008;13.666;2023-09-19T06:46:31;17.60;99.90
59025;DHT22;44806;48.008;13.666;2023-09-19T06:49:00;17.60;99.90
59025;DHT22;44806;48.008;13.666;2023-09-19T06:51:31;17.60;99.90
59025;DHT22;44806;48.008;13.666;2023-09-19T06:54:01;17.70;99.90
59025;DHT22;44806;48.008;13.666;2023-09-19T06:56:30;17.70;99.90
59025;DHT22;44806;48.008;13.666;2023-09-19T06:58:58;17.70;99.90
59025;DHT22;44806;48.008;13.666;2023-09-19T07:01:25;17.80;99.90
59025;DHT22;44806;48.008;13.666;2023-09-19T07:03:52;17.80;99.90
59025;DHT22;44806;48.008;13.666;2023-09-19T07:06:20;17.90;99.90
59025;DHT22;44806;48.008;13.666;2023-09-19T07:08:47;18.00;99.90
59025;DHT22;44806;48.008;13.666;2023-09-19T07:11:17;18.10;99.90
59025;DHT22;44806;48.008;13.666;2023-09-19T07:13:44;18.00;99.90
59025;DHT22;44806;48.008;13.666;2023-09-19T07:16:10;18.10;99.90
59025;DHT22;44806;48.008;13.666;2023-09-19T07:18:44;18.20;99.90
59025;DHT22;44806;48.008;13.666;2023-09-19T07:21:11;18.20;99.90
59025;DHT22;44806;48.008;13.666;2023-09-19T07:23:41;18.30;99.90
59025;DHT22;44806;48.008;13.666;2023-09-19T07:26:07;18.40;99.90
59025;DHT22;44806;48.008;13.666;2023-09-19T07:28:36;18.50;99.90
59025;DHT22;44806;48.008;13.666;2023-09-19T07:31:03;18.60;99.90
59025;DHT22;44806;48.008;13.666;2023-09-19T07:33:30;18.70;99.90
59025;DHT22;44806;48.008;13.666;2023-09-19T07:35:57;18.60;99.90
59025;DHT22;44806;48.008;13.666;2023-09-19T07:38:24;18.80;99.90
59025;DHT22;44806;48.008;13.666;2023-09-19T07:40:52;18.90;99.90
59025;DHT22;44806;48.008;13.666;2023-09-19T07:43:20;18.90;99.90
59025;DHT22;44806;48.008;13.666;2023-09-19T07:45:48;18.90;99.90
59025;DHT22;44806;48.008;13.666;2023-09-19T07:48:15;18.90;99.90
59025;DHT22;44806;48.008;13.666;2023-09-19T07:50:42;18.90;99.90
59025;DHT22;44806;48.008;13.666;2023-09-19T07:53:10;19.10;99.90
59025;DHT22;44806;48.008;13.666;2023-09-19T07:55:38;19.40;99.90
59025;DHT22;44806;48.008;13.666;2023-09-19T07:58:06;19.40;99.90
59025;DHT22;44806;48.008;13.666;2023-09-19T08:00:33;19.40;99.90
59025;DHT22;44806;48.008;13.666;2023-09-19T08:03:02;19.50;99.90
59025;DHT22;44806;48.008;13.666;2023-09-19T08:05:29;19.60;99.90
59025;DHT22;44806;48.008;13.666;2023-09-19T08:07:56;19.60;99.90
59025;DHT22;44806;48.008;13.666;2023-09-19T08:10:24;19.60;99.90
59025;DHT22;44806;48.008;13.666;2023-09-19T08:12:53;19.40;99.90
59025;DHT22;44806;48.008;13.666;2023-09-19T08:15:23;19.40;99.90
59025;DHT22;44806;48.008;13.666;2023-09-19T08:17:50;19.30;99.90
59025;DHT22;44806;48.008;13.666;2023-09-19T08:20:18;19.30;99.90
59025;DHT22;44806;48.008;13.666;2023-09-19T08:22:47;19.30;99.90
59025;DHT22;44806;48.008;13.666;2023-09-19T08:25:15;19.50;99.90
59025;DHT22;44806;48.008;13.666;2023-09-19T08:27:44;19.60;99.90
59025;DHT22;44806;48.008;13.666;2023-09-19T08:30:13;19.50;99.90
59025;DHT22;44806;48.008;13.666;2023-09-19T08:32:41;19.50;99.90
59025;DHT22;44806;48.008;13.666;2023-09-19T08:35:09;19.60;99.90
59025;DHT22;44806;48.008;13.666;2023-09-19T08:37:37;19.80;99.90
59025;DHT22;44806;48.008;13.666;2023-09-19T08:40:05;20.00;99.90
59025;DHT22;44806;48.008;13.666;2023-09-19T08:42:47;20.00;99.90
59025;DHT22;44806;48.008;13.666;2023-09-19T08:45:15;20.20;99.90
59025;DHT22;44806;48.008;13.666;2023-09-19T08:47:46;20.20;99.90
59025;DHT22;44806;48.008;13.666;2023-09-19T08:50:19;20.20;99.90
59025;DHT22;44806;48.008;13.666;2023-09-19T08:52:48;20.30;99.90
59025;DHT22;44806;48.008;13.666;2023-09-19T08:55:19;20.40;99.90
59025;DHT22;44806;48.008;13.666;2023-09-19T08:57:49;20.40;99.90
59025;DHT22;44806;48.008;13.666;2023-09-19T09:00:16;20.20;99.90
59025;DHT22;44806;48.008;13.666;2023-09-19T09:02:47;20.20;99.90
59025;DHT22;44806;48.008;13.666;2023-09-19T09:05:15;20.10;99.90
59025;DHT22;44806;48.008;13.666;2023-09-19T09:07:50;20.00;99.90
59025;DHT22;44806;48.008;13.666;2023-09-19T09:10:17;20.10;99.90
59025;DHT22;44806;48.008;13.666;2023-09-19T09:12:48;20.10;99.90
59025;DHT22;44806;48.008;13.666;2023-09-19T09:15:17;20.00;99.90
59025;DHT22;44806;48.008;13.666;2023-09-19T09:17:47;20.20;99.90
59025;DHT22;44806;48.008;13.666;2023-09-19T09:20:16;20.20;99.90
59025;DHT22;44806;48.008;13.666;2023-09-19T09:22:51;20.20;99.90
59025;DHT22;44806;48.008;13.666;2023-09-19T09:25:20;20.10;99.90
59025;DHT22;44806;48.008;13.666;2023-09-19T09:27:59;20.30;99.90
59025;DHT22;44806;48.008;13.666;2023-09-19T09:30:33;20.40;99.90
59025;DHT22;44806;48.008;13.666;2023-09-19T09:33:10;20.40;99.90
59025;DHT22;44806;48.008;13.666;2023-09-19T09:35:37;20.50;99.90
59025;DHT22;44806;48.008;13.666;2023-09-19T09:38:15;20.50;99.10
59025;DHT22;44806;48.008;13.666;2023-09-19T09:40:48;20.40;99.30
59025;DHT22;44806;48.008;13.666;2023-09-19T09:43:26;20.40;99.70
59025;DHT22;44806;48.008;13.666;2023-09-19T09:46:07;20.50;99.70
59025;DHT22;44806;48.008;13.666;2023-09-19T09:49:00;20.50;99.90
59025;DHT22;44806;48.008;13.666;2023-09-19T09:51:46;20.90;99.90
59025;DHT22;44806;48.008;13.666;2023-09-19T09:54:25;21.10;98.50
59025;DHT22;44806;48.008;13.666;2023-09-19T09:57:00;21.10;98.80
59025;DHT22;44806;48.008;13.666;2023-09-19T09:59:45;20.90;98.70
59025;DHT22;44806;48.008;13.666;2023-09-19T10:02:13;21.10;98.70
59025;DHT22;44806;48.008;13.666;2023-09-19T10:04:42;21.10;99.20
59025;DHT22;44806;48.008;13.666;2023-09-19T10:07:25;21.10;98.20
59025;DHT22;44806;48.008;13.666;2023-09-19T10:09:56;21.10;98.40
59025;DHT22;44806;48.008;13.666;2023-09-19T10:12:31;20.90;96.10
59025;DHT22;44806;48.008;13.666;2023-09-19T10:15:00;21.10;97.10
59025;DHT22;44806;48.008;13.666;2023-09-19T10:17:29;20.80;97.10
59025;DHT22;44806;48.008;13.666;2023-09-19T10:19:58;20.80;96.00
59025;DHT22;44806;48.008;13.666;2023-09-19T10:22:32;20.80;96.00
59025;DHT22;44806;48.008;13.666;2023-09-19T10:25:04;20.80;98.00
59025;DHT22;44806;48.008;13.666;2023-09-19T10:27:36;21.00;98.30
59025;DHT22;44806;48.008;13.666;2023-09-19T10:30:05;21.10;97.20
59025;DHT22;44806;48.008;13.666;2023-09-19T10:32:35;21.10;96.10
59025;DHT22;44806;48.008;13.666;2023-09-19T10:35:05;21.20;96.40
59025;DHT22;44806;48.008;13.666;2023-09-19T10:37:34;21.30;96.30
59025;DHT22;44806;48.008;13.666;2023-09-19T10:40:06;21.40;96.40
59025;DHT22;44806;48.008;13.666;2023-09-19T10:42:38;21.50;96.40
59025;DHT22;44806;48.008;13.666;2023-09-19T10:45:08;21.70;94.90
59025;DHT22;44806;48.008;13.666;2023-09-19T10:47:39;21.70;96.20
59025;DHT22;44806;48.008;13.666;2023-09-19T10:50:06;22.00;95.80
59025;DHT22;44806;48.008;13.666;2023-09-19T10:52:40;22.00;94.60
59025;DHT22;44806;48.008;13.666;2023-09-19T10:55:15;22.10;94.10
59025;DHT22;44806;48.008;13.666;2023-09-19T10:57:44;22.10;93.10
59025;DHT22;44806;48.008;13.666;2023-09-19T11:00:12;21.90;95.00
59025;DHT22;44806;48.008;13.666;2023-09-19T11:03:18;22.10;94.60
59025;DHT22;44806;48.008;13.666;2023-09-19T11:06:04;22.20;94.20
59025;DHT22;44806;48.008;13.666;2023-09-19T11:08:57;22.10;93.40
59025;DHT22;44806;48.008;13.666;2023-09-19T11:11:45;22.00;93.70
59025;DHT22;44806;48.008;13.666;2023-09-19T11:14:41;21.70;93.40
59025;DHT22;44806;48.008;13.666;2023-09-19T11:17:40;21.60;94.50
59025;DHT22;44806;48.008;13.666;2023-09-19T11:20:21;21.50;93.50
59025;DHT22;44806;48.008;13.666;2023-09-19T11:23:20;21.40;94.40
59025;DHT22;44806;48.008;13.666;2023-09-19T11:25:50;21.20;94.40
59025;DHT22;44806;48.008;13.666;2023-09-19T11:28:30;21.30;94.70
59025;DHT22;44806;48.008;13.666;2023-09-19T11:30:57;21.40;95.30
59025;DHT22;44806;48.008;13.666;2023-09-19T11:33:25;21.40;95.10
59025;DHT22;44806;48.008;13.666;2023-09-19T11:36:03;21.40;95.90
59025;DHT22;44806;48.008;13.666;2023-09-19T11:38:57;21.10;97.80
59025;DHT22;44806;48.008;13.666;2023-09-19T11:41:40;20.80;98.10
59025;DHT22;44806;48.008;13.666;2023-09-19T11:44:34;20.60;97.90
59025;DHT22;44806;48.008;13.666;2023-09-19T11:47:05;20.70;99.20
59025;DHT22;44806;48.008;13.666;2023-09-19T11:49:32;20.80;99.20
59025;DHT22;44806;48.008;13.666;2023-09-19T11:52:01;20.50;97.90
59025;DHT22;44806;48.008;13.666;2023-09-19T11:54:31;20.60;99.00
59025;DHT22;44806;48.008;13.666;2023-09-19T11:56:59;20.70;99.90
59025;DHT22;44806;48.008;13.666;2023-09-19T11:59:27;20.80;99.90
59025;DHT22;44806;48.008;13.666;2023-09-19T12:01:58;21.10;99.40
59025;DHT22;44806;48.008;13.666;2023-09-19T12:04:34;21.10;97.80
59025;DHT22;44806;48.008;13.666;2023-09-19T12:07:04;21.10;97.50
59025;DHT22;44806;48.008;13.666;2023-09-19T12:09:31;21.00;98.30
59025;DHT22;44806;48.008;13.666;2023-09-19T12:11:59;21.10;99.20
59025;DHT22;44806;48.008;13.666;2023-09-19T12:14:26;21.10;98.00
59025;DHT22;44806;48.008;13.666;2023-09-19T12:16:55;21.10;98.00
59025;DHT22;44806;48.008;13.666;2023-09-19T12:19:23;21.30;98.70
59025;DHT22;44806;48.008;13.666;2023-09-19T12:21:59;21.40;98.50
59025;DHT22;44806;48.008;13.666;2023-09-19T12:24:30;21.50;97.60
59025;DHT22;44806;48.008;13.666;2023-09-19T12:27:01;21.70;98.30
59025;DHT22;44806;48.008;13.666;2023-09-19T12:29:31;21.80;97.00
59025;DHT22;44806;48.008;13.666;2023-09-19T12:32:01;21.60;96.20
59025;DHT22;44806;48.008;13.666;2023-09-19T12:34:31;21.70;96.30
59025;DHT22;44806;48.008;13.666;2023-09-19T12:37:04;21.60;95.70
59025;DHT22;44806;48.008;13.666;2023-09-19T12:39:37;21.60;96.50
59025;DHT22;44806;48.008;13.666;2023-09-19T12:42:07;21.80;97.60
59025;DHT22;44806;48.008;13.666;2023-09-19T12:44:36;21.80;94.70
59025;DHT22;44806;48.008;13.666;2023-09-19T12:47:15;21.70;95.80
59025;DHT22;44806;48.008;13.666;2023-09-19T12:50:08;21.80;96.90
59025;DHT22;44806;48.008;13.666;2023-09-19T12:52:39;21.80;96.50
59025;DHT22;44806;48.008;13.666;2023-09-19T12:55:07;21.70;95.40
59025;DHT22;44806;48.008;13.666;2023-09-19T12:57:35;21.70;96.20
59025;DHT22;44806;48.008;13.666;2023-09-19T13:00:02;21.70;94.90
59025;DHT22;44806;48.008;13.666;2023-09-19T13:02:32;21.60;95.60
59025;DHT22;44806;48.008;13.666;2023-09-19T13:04:59;21.30;95.60
59025;DHT22;44806;48.008;13.666;2023-09-19T13:07:42;21.40;95.90
59025;DHT22;44806;48.008;13.666;2023-09-19T13:10:10;21.50;97.30
59025;DHT22;44806;48.008;13.666;2023-09-19T13:12:41;21.70;95.30
59025;DHT22;44806;48.008;13.666;2023-09-19T13:15:10;21.50;95.80
59025;DHT22;44806;48.008;13.666;2023-09-19T13:17:47;21.50;95.70
59025;DHT22;44806;48.008;13.666;2023-09-19T13:20:22;21.60;95.70
59025;DHT22;44806;48.008;13.666;2023-09-19T13:22:53;21.80;95.40
59025;DHT22;44806;48.008;13.666;2023-09-19T13:25:25;21.80;96.20
59025;DHT22;44806;48.008;13.666;2023-09-19T13:27:57;22.00;96.60
59025;DHT22;44806;48.008;13.666;2023-09-19T13:30:27;22.20;96.50
59025;DHT22;44806;48.008;13.666;2023-09-19T13:33:06;22.30;96.20
59025;DHT22;44806;48.008;13.666;2023-09-19T13:35:33;22.10;94.30
59025;DHT22;44806;48.008;13.666;2023-09-19T13:38:01;22.20;94.30
59025;DHT22;44806;48.008;13.666;2023-09-19T13:40:28;22.10;92.70
59025;DHT22;44806;48.008;13.666;2023-09-19T13:42:57;22.10;93.60
59025;DHT22;44806;48.008;13.666;2023-09-19T13:45:24;22.10;92.50
59025;DHT22;44806;48.008;13.666;2023-09-19T13:47:52;22.10;91.50
59025;DHT22;44806;48.008;13.666;2023-09-19T13:50:21;22.10;92.60
59025;DHT22;44806;48.008;13.666;2023-09-19T13:52:49;22.10;92.70
59025;DHT22;44806;48.008;13.666;2023-09-19T13:55:17;22.20;92.50
59025;DHT22;44806;48.008;13.666;2023-09-19T13:57:46;22.10;92.80
59025;DHT22;44806;48.008;13.666;2023-09-19T14:00:15;22.20;91.60
59025;DHT22;44806;48.008;13.666;2023-09-19T14:02:43;21.80;94.20
59025;DHT22;44806;48.008;13.666;2023-09-19T14:05:11;21.70;95.40
59025;DHT22;44806;48.008;13.666;2023-09-19T14:07:42;21.60;95.50
59025;DHT22;44806;48.008;13.666;2023-09-19T14:10:10;21.30;96.60
59025;DHT22;44806;48.008;13.666;2023-09-19T14:12:38;21.40;96.40
59025;DHT22;44806;48.008;13.666;2023-09-19T14:15:07;21.20;96.40
59025;DHT22;44806;48.008;13.666;2023-09-19T14:17:33;21.30;96.60
59025;DHT22;44806;48.008;13.666;2023-09-19T14:20:00;21.40;97.20
59025;DHT22;44806;48.008;13.666;2023-09-19T14:22:27;21.50;96.80
59025;DHT22;44806;48.008;13.666;2023-09-19T14:24:55;21.50;96.30
59025;DHT22;44806;48.008;13.666;2023-09-19T14:27:22;21.40;96.90
59025;DHT22;44806;48.008;13.666;2023-09-19T14:29:50;21.40;96.50
59025;DHT22;44806;48.008;13.666;2023-09-19T14:32:18;21.50;96.70
59025;DHT22;44806;48.008;13.666;2023-09-19T14:34:45;21.40;97.00
59025;DHT22;44806;48.008;13.666;2023-09-19T14:37:12;21.60;96.40
59025;DHT22;44806;48.008;13.666;2023-09-19T14:39:39;21.80;96.40
59025;DHT22;44806;48.008;13.666;2023-09-19T14:42:07;21.70;95.50
59025;DHT22;44806;48.008;13.666;2023-09-19T14:44:34;21.40;95.50
59025;DHT22;44806;48.008;13.666;2023-09-19T14:47:03;21.40;95.20
59025;DHT22;44806;48.008;13.666;2023-09-19T14:49:33;21.70;96.20
59025;DHT22;44806;48.008;13.666;2023-09-19T14:52:00;21.80;95.80
59025;DHT22;44806;48.008;13.666;2023-09-19T14:54:29;21.90;95.60
59025;DHT22;44806;48.008;13.666;2023-09-19T14:56:56;22.10;95.80
59025;DHT22;44806;48.008;13.666;2023-09-19T14:59:31;22.20;95.20
59025;DHT22;44806;48.008;13.666;2023-09-19T15:01:59;22.20;94.30
59025;DHT22;44806;48.008;13.666;2023-09-19T15:04:26;22.20;95.10
59025;DHT22;44806;48.008;13.666;2023-09-19T15:06:53;22.10;94.50
59025;DHT22;44806;48.008;13.666;2023-09-19T15:09:20;22.10;95.80
59025;DHT22;44806;48.008;13.666;2023-09-19T15:11:51;22.30;95.40
59025;DHT22;44806;48.008;13.666;2023-09-19T15:14:19;22.30;95.10
59025;DHT22;44806;48.008;13.666;2023-09-19T15:16:47;22.10;94.60
59025;DHT22;44806;48.008;13.666;2023-09-19T15:19:14;22.00;95.30
59025;DHT22;44806;48.008;13.666;2023-09-19T15:21:43;22.10;95.30
59025;DHT22;44806;48.008;13.666;2023-09-19T15:24:10;22.10;96.20
59025;DHT22;44806;48.008;13.666;2023-09-19T15:26:37;22.20;95.30
59025;DHT22;44806;48.008;13.666;2023-09-19T15:29:05;22.40;96.20
59025;DHT22;44806;48.008;13.666;2023-09-19T15:31:32;22.70;95.10
59025;DHT22;44806;48.008;13.666;2023-09-19T15:34:00;22.80;95.60
59025;DHT22;44806;48.008;13.666;2023-09-19T15:36:27;23.00;94.40